sensor_id;sensor_type;location;lat;lon;timestamp;temperature;humidity
19050;DHT22;9657;45.940;12.840;2023-07-30T00:00:33;27.60;61.80
19050;DHT22;9657;45.940;12.840;2023-07-30T00:03:00;27.60;61.90
19050;DHT22;9657;45.940;12.840;2023-07-30T00:05:27;27.60;61.80
19050;DHT22;9657;45.940;12.840;2023-07-30T00:07:55;27.60;61.80
19050;DHT22;9657;45.940;12.840;2023-07-30T00:10:23;27.60;61.90
19050;DHT22;9657;45.940;12.840;2023-07-30T00:12:50;27.60;61.90
19050;DHT22;9657;45.940;12.840;2023-07-30T00:15:17;27.60;61.90
19050;DHT22;9657;45.940;12.840;2023-07-30T00:17:44;27.60;61.90
19050;DHT22;9657;45.940;12.840;2023-07-30T00:20:11;27.60;61.90
19050;DHT22;9657;45.940;12.840;2023-07-30T00:22:38;27.60;61.90
19050;DHT22;9657;45.940;12.840;2023-07-30T00:25:06;27.50;61.80
19050;DHT22;9657;45.940;12.840;2023-07-30T00:27:35;27.60;61.90
19050;DHT22;9657;45.940;12.840;2023-07-30T00:30:02;27.60;62.00
19050;DHT22;9657;45.940;12.840;2023-07-30T00:32:29;27.60;62.00
19050;DHT22;9657;45.940;12.840;2023-07-30T00:34:57;27.60;62.10
19050;DHT22;9657;45.940;12.840;2023-07-30T00:37:24;27.60;61.90
19050;DHT22;9657;45.940;12.840;2023-07-30T00:39:51;27.60;62.00
19050;DHT22;9657;45.940;12.840;2023-07-30T00:42:18;27.60;62.00
19050;DHT22;9657;45.940;12.840;2023-07-30T00:44:46;27.60;62.00
19050;DHT22;9657;45.940;12.840;2023-07-30T00:47:13;27.60;62.10
19050;DHT22;9657;45.940;12.840;2023-07-30T00:49:40;27.60;62.00
19050;DHT22;9657;45.940;12.840;2023-07-30T00:52:08;27.60;61.90
19050;DHT22;9657;45.940;12.840;2023-07-30T00:54:35;27.50;61.90
19050;DHT22;9657;45.940;12.840;2023-07-30T00:57:03;27.60;62.00
19050;DHT22;9657;45.940;12.840;2023-07-30T00:59:30;27.60;62.00
19050;DHT22;9657;45.940;12.840;2023-07-30T01:04:33;27.60;62.00
19050;DHT22;9657;45.940;12.840;2023-07-30T01:07:03;27.50;62.00
19050;DHT22;9657;45.940;12.840;2023-07-30T01:09:30;27.50;62.00
19050;DHT22;9657;45.940;12.840;2023-07-30T01:11:58;27.50;62.00
19050;DHT22;9657;45.940;12.840;2023-07-30T01:14:27;27.50;62.00
19050;DHT22;9657;45.940;12.840;2023-07-30T01:16:54;27.50;62.10
19050;DHT22;9657;45.940;12.840;2023-07-30T01:19:21;27.50;62.00
19050;DHT22;9657;45.940;12.840;2023-07-30T01:21:49;27.50;62.00
19050;DHT22;9657;45.940;12.840;2023-07-30T01:24:16;27.50;62.00
19050;DHT22;9657;45.940;12.840;2023-07-30T01:26:44;27.50;62.00
19050;DHT22;9657;45.940;12.840;2023-07-30T01:29:14;27.50;62.00
19050;DHT22;9657;45.940;12.840;2023-07-30T01:31:43;27.50;62.00
19050;DHT22;9657;45.940;12.840;2023-07-30T01:34:13;27.50;62.10
19050;DHT22;9657;45.940;12.840;2023-07-30T01:36:41;27.50;62.10
19050;DHT22;9657;45.940;12.840;2023-07-30T01:39:10;27.50;62.10
19050;DHT22;9657;45.940;12.840;2023-07-30T01:41:38;27.50;62.10
19050;DHT22;9657;45.940;12.840;2023-07-30T01:44:05;27.50;62.00
19050;DHT22;9657;45.940;12.840;2023-07-30T01:46:32;27.50;62.10
19050;DHT22;9657;45.940;12.840;2023-07-30T01:48:59;27.50;62.00
19050;DHT22;9657;45.940;12.840;2023-07-30T01:51:26;27.50;62.00
19050;DHT22;9657;45.940;12.840;2023-07-30T01:53:53;27.50;62.00
19050;DHT22;9657;45.940;12.840;2023-07-30T01:56:21;27.50;62.20
19050;DHT22;9657;45.940;12.840;2023-07-30T01:58:48;27.50;62.10
19050;DHT22;9657;45.940;12.840;2023-07-30T02:01:16;27.50;62.20
19050;DHT22;9657;45.940;12.840;2023-07-30T02:03:43;27.50;62.30
19050;DHT22;9657;45.940;12.840;2023-07-30T02:06:10;27.50;62.30
19050;DHT22;9657;45.940;12.840;2023-07-30T02:08:37;27.50;62.30
19050;DHT22;9657;45.940;12.840;2023-07-30T02:11:04;27.40;63.10
19050;DHT22;9657;45.940;12.840;2023-07-30T02:13:33;27.50;63.20
19050;DHT22;9657;45.940;12.840;2023-07-30T02:16:00;27.40;62.30
19050;DHT22;9657;45.940;12.840;2023-07-30T02:18:27;27.50;62.40
19050;DHT22;9657;45.940;12.840;2023-07-30T02:20:54;27.50;62.50
19050;DHT22;9657;45.940;12.840;2023-07-30T02:23:21;27.50;62.40
19050;DHT22;9657;45.940;12.840;2023-07-30T02:25:48;27.50;62.30
19050;DHT22;9657;45.940;12.840;2023-07-30T02:28:15;27.40;62.40
19050;DHT22;9657;45.940;12.840;2023-07-30T02:30:43;27.40;62.30
19050;DHT22;9657;45.940;12.840;2023-07-30T02:33:10;27.40;62.30
19050;DHT22;9657;45.940;12.840;2023-07-30T02:35:37;27.40;62.30
19050;DHT22;9657;45.940;12.840;2023-07-30T02:38:04;27.40;62.30
19050;DHT22;9657;45.940;12.840;2023-07-30T02:40:31;27.40;62.30
19050;DHT22;9657;45.940;12.840;2023-07-30T02:42:58;27.40;62.30
19050;DHT22;9657;45.940;12.840;2023-07-30T02:45:25;27.40;62.30
19050;DHT22;9657;45.940;12.840;2023-07-30T02:47:54;27.40;62.40
19050;DHT22;9657;45.940;12.840;2023-07-30T02:50:21;27.40;62.40
19050;DHT22;9657;45.940;12.840;2023-07-30T02:52:48;27.40;62.40
19050;DHT22;9657;45.940;12.840;2023-07-30T02:55:15;27.40;62.40
19050;DHT22;9657;45.940;12.840;2023-07-30T02:57:42;27.40;62.50
19050;DHT22;9657;45.940;12.840;2023-07-30T03:00:11;27.40;62.50
19050;DHT22;9657;45.940;12.840;2023-07-30T03:02:39;27.40;62.60
19050;DHT22;9657;45.940;12.840;2023-07-30T03:05:08;27.40;62.50
19050;DHT22;9657;45.940;12.840;2023-07-30T03:07:35;27.40;62.60
19050;DHT22;9657;45.940;12.840;2023-07-30T03:10:02;27.40;62.60
19050;DHT22;9657;45.940;12.840;2023-07-30T03:12:30;27.40;62.60
19050;DHT22;9657;45.940;12.840;2023-07-30T03:14:57;27.40;62.50
19050;DHT22;9657;45.940;12.840;2023-07-30T03:17:24;27.40;62.60
19050;DHT22;9657;45.940;12.840;2023-07-30T03:19:51;27.30;62.50
19050;DHT22;9657;45.940;12.840;2023-07-30T03:22:20;27.40;62.50
19050;DHT22;9657;45.940;12.840;2023-07-30T03:24:47;27.30;62.50
19050;DHT22;9657;45.940;12.840;2023-07-30T03:27:14;27.40;62.60
19050;DHT22;9657;45.940;12.840;2023-07-30T03:29:41;27.40;62.60
19050;DHT22;9657;45.940;12.840;2023-07-30T03:32:08;27.40;62.50
19050;DHT22;9657;45.940;12.840;2023-07-30T03:34:35;27.40;62.60
19050;DHT22;9657;45.940;12.840;2023-07-30T03:37:02;27.30;62.50
19050;DHT22;9657;45.940;12.840;2023-07-30T03:39:31;27.40;62.50
19050;DHT22;9657;45.940;12.840;2023-07-30T03:41:58;27.40;62.50
19050;DHT22;9657;45.940;12.840;2023-07-30T03:44:25;27.40;62.50
19050;DHT22;9657;45.940;12.840;2023-07-30T03:46:52;27.30;62.40
19050;DHT22;9657;45.940;12.840;2023-07-30T03:49:19;27.30;62.40
19050;DHT22;9657;45.940;12.840;2023-07-30T03:51:46;27.30;62.40
19050;DHT22;9657;45.940;12.840;2023-07-30T03:54:13;27.30;62.30
19050;DHT22;9657;45.940;12.840;2023-07-30T03:56:42;27.30;62.40
19050;DHT22;9657;45.940;12.840;2023-07-30T03:59:09;27.30;62.40
19050;DHT22;9657;45.940;12.840;2023-07-30T04:01:36;27.30;62.30
19050;DHT22;9657;45.940;12.840;2023-07-30T04:04:03;27.30;62.30
19050;DHT22;9657;45.940;12.840;2023-07-30T04:06:30;27.30;62.30
19050;DHT22;9657;45.940;12.840;2023-07-30T04:08:57;27.30;62.30
19050;DHT22;9657;45.940;12.840;2023-07-30T04:11:24;27.30;62.30
19050;DHT22;9657;45.940;12.840;2023-07-30T04:13:53;27.30;62.20
19050;DHT22;9657;45.940;12.840;2023-07-30T04:16:20;27.30;62.20
19050;DHT22;9657;45.940;12.840;2023-07-30T04:18:47;27.30;62.30
19050;DHT22;9657;45.940;12.840;2023-07-30T04:21:14;27.30;62.40
19050;DHT22;9657;45.940;12.840;2023-07-30T04:23:41;27.30;62.20
19050;DHT22;9657;45.940;12.840;2023-07-30T04:26:08;27.30;62.20
19050;DHT22;9657;45.940;12.840;2023-07-30T04:28:35;27.30;62.20
19050;DHT22;9657;45.940;12.840;2023-07-30T04:31:03;27.30;62.20
19050;DHT22;9657;45.940;12.840;2023-07-30T04:33:30;27.30;62.20
19050;DHT22;9657;45.940;12.840;2023-07-30T04:35:57;27.30;62.20
19050;DHT22;9657;45.940;12.840;2023-07-30T04:38:24;27.30;62.20
19050;DHT22;9657;45.940;12.840;2023-07-30T04:40:51;27.30;62.20
19050;DHT22;9657;45.940;12.840;2023-07-30T04:43:18;27.30;62.20
19050;DHT22;9657;45.940;12.840;2023-07-30T04:45:45;27.30;62.20
19050;DHT22;9657;45.940;12.840;2023-07-30T04:48:14;27.30;62.20
19050;DHT22;9657;45.940;12.840;2023-07-30T04:50:41;27.30;62.20
19050;DHT22;9657;45.940;12.840;2023-07-30T04:53:08;27.30;62.20
19050;DHT22;9657;45.940;12.840;2023-07-30T04:55:35;27.30;62.20
19050;DHT22;9657;45.940;12.840;2023-07-30T04:58:02;27.30;62.20
19050;DHT22;9657;45.940;12.840;2023-07-30T05:00:29;27.20;62.10
19050;DHT22;9657;45.940;12.840;2023-07-30T05:02:57;27.20;62.20
19050;DHT22;9657;45.940;12.840;2023-07-30T05:05:25;27.20;62.10
19050;DHT22;9657;45.940;12.840;2023-07-30T05:07:52;27.20;62.10
19050;DHT22;9657;45.940;12.840;2023-07-30T05:10:19;27.20;62.10
19050;DHT22;9657;45.940;12.840;2023-07-30T05:12:46;27.20;62.00
19050;DHT22;9657;45.940;12.840;2023-07-30T05:15:13;27.20;62.10
19050;DHT22;9657;45.940;12.840;2023-07-30T05:17:40;27.20;62.10
19050;DHT22;9657;45.940;12.840;2023-07-30T05:20:08;27.20;62.10
19050;DHT22;9657;45.940;12.840;2023-07-30T05:22:37;27.20;62.10
19050;DHT22;9657;45.940;12.840;2023-07-30T05:25:04;27.20;62.00
19050;DHT22;9657;45.940;12.840;2023-07-30T05:27:31;27.20;62.10
19050;DHT22;9657;45.940;12.840;2023-07-30T05:29:59;27.20;62.10
19050;DHT22;9657;45.940;12.840;2023-07-30T05:32:26;27.20;62.00
19050;DHT22;9657;45.940;12.840;2023-07-30T05:34:53;27.20;62.00
19050;DHT22;9657;45.940;12.840;2023-07-30T05:37:20;27.20;62.10
19050;DHT22;9657;45.940;12.840;2023-07-30T05:39:48;27.20;62.10
19050;DHT22;9657;45.940;12.840;2023-07-30T05:42:15;27.20;62.10
19050;DHT22;9657;45.940;12.840;2023-07-30T05:44:42;27.20;62.10
19050;DHT22;9657;45.940;12.840;2023-07-30T05:47:09;27.20;62.10
19050;DHT22;9657;45.940;12.840;2023-07-30T05:49:36;27.20;62.10
19050;DHT22;9657;45.940;12.840;2023-07-30T05:52:04;27.20;62.20
19050;DHT22;9657;45.940;12.840;2023-07-30T05:54:31;27.20;62.20
19050;DHT22;9657;45.940;12.840;2023-07-30T05:57:00;27.20;62.20
19050;DHT22;9657;45.940;12.840;2023-07-30T05:59:27;27.20;62.30
19050;DHT22;9657;45.940;12.840;2023-07-30T06:01:56;27.20;62.30
19050;DHT22;9657;45.940;12.840;2023-07-30T06:04:24;27.20;62.30
19050;DHT22;9657;45.940;12.840;2023-07-30T06:06:51;27.20;62.30
19050;DHT22;9657;45.940;12.840;2023-07-30T06:09:18;27.20;62.30
19050;DHT22;9657;45.940;12.840;2023-07-30T06:11:45;27.20;62.30
19050;DHT22;9657;45.940;12.840;2023-07-30T06:14:14;27.20;62.30
19050;DHT22;9657;45.940;12.840;2023-07-30T06:16:41;27.20;62.30
19050;DHT22;9657;45.940;12.840;2023-07-30T06:19:09;27.20;62.30
19050;DHT22;9657;45.940;12.840;2023-07-30T06:21:36;27.20;62.30
19050;DHT22;9657;45.940;12.840;2023-07-30T06:24:03;27.20;62.30
19050;DHT22;9657;45.940;12.840;2023-07-30T06:26:30;27.20;62.40
19050;DHT22;9657;45.940;12.840;2023-07-30T06:28:57;27.20;62.40
19050;DHT22;9657;45.940;12.840;2023-07-30T06:31:26;27.20;62.40
19050;DHT22;9657;45.940;12.840;2023-07-30T06:33:53;27.20;62.40
19050;DHT22;9657;45.940;12.840;2023-07-30T06:36:20;27.20;62.50
19050;DHT22;9657;45.940;12.840;2023-07-30T06:38:47;27.20;62.50
19050;DHT22;9657;45.940;12.840;2023-07-30T06:41:14;27.20;62.50
19050;DHT22;9657;45.940;12.840;2023-07-30T06:43:41;27.20;62.60
19050;DHT22;9657;45.940;12.840;2023-07-30T06:46:08;27.20;62.50
19050;DHT22;9657;45.940;12.840;2023-07-30T06:48:37;27.20;62.50
19050;DHT22;9657;45.940;12.840;2023-07-30T06:51:06;27.20;62.70
19050;DHT22;9657;45.940;12.840;2023-07-30T06:53:33;27.20;62.70
19050;DHT22;9657;45.940;12.840;2023-07-30T06:56:00;27.20;62.80
19050;DHT22;9657;45.940;12.840;2023-07-30T06:58:27;27.20;62.80
19050;DHT22;9657;45.940;12.840;2023-07-30T07:00:54;27.20;62.80
19050;DHT22;9657;45.940;12.840;2023-07-30T07:03:21;27.20;62.80
19050;DHT22;9657;45.940;12.840;2023-07-30T07:05:54;27.20;62.80
19050;DHT22;9657;45.940;12.840;2023-07-30T07:08:21;27.20;62.90
19050;DHT22;9657;45.940;12.840;2023-07-30T07:10:50;27.20;62.90
19050;DHT22;9657;45.940;12.840;2023-07-30T07:13:17;27.20;62.90
19050;DHT22;9657;45.940;12.840;2023-07-30T07:15:44;27.20;62.80
19050;DHT22;9657;45.940;12.840;2023-07-30T07:18:11;27.20;62.80
19050;DHT22;9657;45.940;12.840;2023-07-30T07:20:38;27.30;62.90
19050;DHT22;9657;45.940;12.840;2023-07-30T07:23:07;27.20;62.90
19050;DHT22;9657;45.940;12.840;2023-07-30T07:25:34;27.20;62.90
19050;DHT22;9657;45.940;12.840;2023-07-30T07:28:03;27.20;62.90
19050;DHT22;9657;45.940;12.840;2023-07-30T07:30:30;27.20;62.90
19050;DHT22;9657;45.940;12.840;2023-07-30T07:32:57;27.20;62.90
19050;DHT22;9657;45.940;12.840;2023-07-30T07:35:24;27.30;63.00
19050;DHT22;9657;45.940;12.840;2023-07-30T07:37:52;27.20;62.90
19050;DHT22;9657;45.940;12.840;2023-07-30T07:40:20;27.20;63.00
19050;DHT22;9657;45.940;12.840;2023-07-30T07:42:47;27.30;63.00
19050;DHT22;9657;45.940;12.840;2023-07-30T07:45:14;27.30;63.10
19050;DHT22;9657;45.940;12.840;2023-07-30T07:47:41;27.30;63.00
19050;DHT22;9657;45.940;12.840;2023-07-30T07:50:08;27.30;63.00
19050;DHT22;9657;45.940;12.840;2023-07-30T07:52:35;27.30;63.10
19050;DHT22;9657;45.940;12.840;2023-07-30T07:55:03;27.30;63.10
19050;DHT22;9657;45.940;12.840;2023-07-30T07:57:32;27.20;63.00
19050;DHT22;9657;45.940;12.840;2023-07-30T07:59:59;27.30;63.10
19050;DHT22;9657;45.940;12.840;2023-07-30T08:02:26;27.30;63.10
19050;DHT22;9657;45.940;12.840;2023-07-30T08:04:53;27.30;63.00
19050;DHT22;9657;45.940;12.840;2023-07-30T08:07:20;27.30;63.00
19050;DHT22;9657;45.940;12.840;2023-07-30T08:09:47;27.20;62.90
19050;DHT22;9657;45.940;12.840;2023-07-30T08:12:14;27.30;63.10
19050;DHT22;9657;45.940;12.840;2023-07-30T08:14:42;27.30;63.90
19050;DHT22;9657;45.940;12.840;2023-07-30T08:17:09;27.30;63.10
19050;DHT22;9657;45.940;12.840;2023-07-30T08:19:36;27.30;63.10
19050;DHT22;9657;45.940;12.840;2023-07-30T08:22:03;27.30;63.00
19050;DHT22;9657;45.940;12.840;2023-07-30T08:24:31;27.30;63.00
19050;DHT22;9657;45.940;12.840;2023-07-30T08:26:58;27.30;62.80
19050;DHT22;9657;45.940;12.840;2023-07-30T08:29:26;27.30;62.80
19050;DHT22;9657;45.940;12.840;2023-07-30T08:31:54;27.30;62.90
19050;DHT22;9657;45.940;12.840;2023-07-30T08:34:22;27.30;63.00
19050;DHT22;9657;45.940;12.840;2023-07-30T08:36:49;27.30;62.90
19050;DHT22;9657;45.940;12.840;2023-07-30T08:39:16;27.30;62.80
19050;DHT22;9657;45.940;12.840;2023-07-30T08:41:44;27.30;62.90
19050;DHT22;9657;45.940;12.840;2023-07-30T08:44:12;27.30;62.80
19050;DHT22;9657;45.940;12.840;2023-07-30T08:46:39;27.30;62.80
19050;DHT22;9657;45.940;12.840;2023-07-30T08:49:08;27.30;62.90
19050;DHT22;9657;45.940;12.840;2023-07-30T08:51:36;27.30;62.80
19050;DHT22;9657;45.940;12.840;2023-07-30T08:54:04;27.40;62.80
19050;DHT22;9657;45.940;12.840;2023-07-30T08:56:32;27.40;62.70
19050;DHT22;9657;45.940;12.840;2023-07-30T08:58:59;27.40;62.50
19050;DHT22;9657;45.940;12.840;2023-07-30T09:01:30;27.40;62.40
19050;DHT22;9657;45.940;12.840;2023-07-30T09:03:58;27.40;62.30
19050;DHT22;9657;45.940;12.840;2023-07-30T09:06:28;27.50;62.30
19050;DHT22;9657;45.940;12.840;2023-07-30T09:08:55;27.40;62.00
19050;DHT22;9657;45.940;12.840;2023-07-30T09:11:25;27.50;61.90
19050;DHT22;9657;45.940;12.840;2023-07-30T09:13:54;27.50;61.80
19050;DHT22;9657;45.940;12.840;2023-07-30T09:16:25;27.50;61.70
19050;DHT22;9657;45.940;12.840;2023-07-30T09:18:52;27.60;61.60
19050;DHT22;9657;45.940;12.840;2023-07-30T09:21:20;27.70;61.40
19050;DHT22;9657;45.940;12.840;2023-07-30T09:23:57;27.70;61.10
19050;DHT22;9657;45.940;12.840;2023-07-30T09:26:29;27.80;60.90
19050;DHT22;9657;45.940;12.840;2023-07-30T09:28:56;27.80;60.60
19050;DHT22;9657;45.940;12.840;2023-07-30T09:31:23;27.90;60.30
19050;DHT22;9657;45.940;12.840;2023-07-30T09:33:50;27.90;60.10
19050;DHT22;9657;45.940;12.840;2023-07-30T09:36:19;28.00;60.00
19050;DHT22;9657;45.940;12.840;2023-07-30T09:38:47;28.00;59.90
19050;DHT22;9657;45.940;12.840;2023-07-30T09:41:16;28.00;59.70
19050;DHT22;9657;45.940;12.840;2023-07-30T09:43:44;28.00;59.70
19050;DHT22;9657;45.940;12.840;2023-07-30T09:46:11;28.00;59.60
19050;DHT22;9657;45.940;12.840;2023-07-30T09:48:38;28.10;59.50
19050;DHT22;9657;45.940;12.840;2023-07-30T09:51:05;28.10;59.50
19050;DHT22;9657;45.940;12.840;2023-07-30T09:53:33;28.10;59.50
19050;DHT22;9657;45.940;12.840;2023-07-30T09:56:01;28.10;59.40
19050;DHT22;9657;45.940;12.840;2023-07-30T09:58:30;28.10;59.30
19050;DHT22;9657;45.940;12.840;2023-07-30T10:00:58;28.10;59.30
19050;DHT22;9657;45.940;12.840;2023-07-30T10:03:26;28.10;59.20
19050;DHT22;9657;45.940;12.840;2023-07-30T10:05:57;28.10;59.20
19050;DHT22;9657;45.940;12.840;2023-07-30T10:08:25;28.10;59.10
19050;DHT22;9657;45.940;12.840;2023-07-30T10:10:54;28.10;59.10
19050;DHT22;9657;45.940;12.840;2023-07-30T10:13:22;28.10;59.00
19050;DHT22;9657;45.940;12.840;2023-07-30T10:15:51;28.10;59.00
19050;DHT22;9657;45.940;12.840;2023-07-30T10:18:18;28.10;59.00
19050;DHT22;9657;45.940;12.840;2023-07-30T10:20:53;28.10;59.00
19050;DHT22;9657;45.940;12.840;2023-07-30T10:23:20;28.10;59.00
19050;DHT22;9657;45.940;12.840;2023-07-30T10:25:49;28.10;58.90
19050;DHT22;9657;45.940;12.840;2023-07-30T10:28:27;28.10;58.90
19050;DHT22;9657;45.940;12.840;2023-07-30T10:31:01;28.10;59.00
19050;DHT22;9657;45.940;12.840;2023-07-30T10:33:45;28.10;58.90
19050;DHT22;9657;45.940;12.840;2023-07-30T10:36:12;28.10;58.90
19050;DHT22;9657;45.940;12.840;2023-07-30T10:38:39;28.10;58.90
19050;DHT22;9657;45.940;12.840;2023-07-30T10:41:08;28.10;59.00
19050;DHT22;9657;45.940;12.840;2023-07-30T10:43:37;28.10;58.90
19050;DHT22;9657;45.940;12.840;2023-07-30T10:46:07;28.10;58.90
19050;DHT22;9657;45.940;12.840;2023-07-30T10:48:36;28.20;58.90
19050;DHT22;9657;45.940;12.840;2023-07-30T10:51:05;28.10;58.80
19050;DHT22;9657;45.940;12.840;2023-07-30T10:53:32;28.10;58.70
19050;DHT22;9657;45.940;12.840;2023-07-30T10:56:03;28.10;58.80
19050;DHT22;9657;45.940;12.840;2023-07-30T10:58:31;28.10;58.80
19050;DHT22;9657;45.940;12.840;2023-07-30T11:00:59;28.10;58.70
19050;DHT22;9657;45.940;12.840;2023-07-30T11:03:29;28.10;58.70
19050;DHT22;9657;45.940;12.840;2023-07-30T11:05:57;28.10;58.70
19050;DHT22;9657;45.940;12.840;2023-07-30T11:08:32;28.10;58.70
19050;DHT22;9657;45.940;12.840;2023-07-30T11:11:00;28.20;58.80
19050;DHT22;9657;45.940;12.840;2023-07-30T11:13:27;28.20;58.80
19050;DHT22;9657;45.940;12.840;2023-07-30T11:15:54;28.10;58.80
19050;DHT22;9657;45.940;12.840;2023-07-30T11:18:22;28.20;58.70
19050;DHT22;9657;45.940;12.840;2023-07-30T11:20:50;28.20;58.80
19050;DHT22;9657;45.940;12.840;2023-07-30T11:23:20;28.20;58.80
19050;DHT22;9657;45.940;12.840;2023-07-30T11:25:47;28.20;59.40
19050;DHT22;9657;45.940;12.840;2023-07-30T11:28:27;28.20;58.80
19050;DHT22;9657;45.940;12.840;2023-07-30T11:30:57;28.20;58.80
19050;DHT22;9657;45.940;12.840;2023-07-30T11:33:25;28.20;58.80
19050;DHT22;9657;45.940;12.840;2023-07-30T11:35:54;28.20;58.90
19050;DHT22;9657;45.940;12.840;2023-07-30T11:38:22;28.20;58.80
19050;DHT22;9657;45.940;12.840;2023-07-30T11:40:50;28.20;58.70
19050;DHT22;9657;45.940;12.840;2023-07-30T11:43:17;28.20;58.60
19050;DHT22;9657;45.940;12.840;2023-07-30T11:45:44;28.20;58.50
19050;DHT22;9657;45.940;12.840;2023-07-30T11:48:12;28.20;58.80
19050;DHT22;9657;45.940;12.840;2023-07-30T11:50:49;28.20;58.60
19050;DHT22;9657;45.940;12.840;2023-07-30T11:53:18;28.20;58.60
19050;DHT22;9657;45.940;12.840;2023-07-30T11:55:45;28.20;58.70
19050;DHT22;9657;45.940;12.840;2023-07-30T11:58:13;28.20;58.60
19050;DHT22;9657;45.940;12.840;2023-07-30T12:00:41;28.20;58.50
19050;DHT22;9657;45.940;12.840;2023-07-30T12:03:11;28.20;58.60
19050;DHT22;9657;45.940;12.840;2023-07-30T12:05:39;28.20;58.80
19050;DHT22;9657;45.940;12.840;2023-07-30T12:08:12;28.20;58.80
19050;DHT22;9657;45.940;12.840;2023-07-30T12:10:44;28.20;58.80
19050;DHT22;9657;45.940;12.840;2023-07-30T12:13:12;28.20;58.70
19050;DHT22;9657;45.940;12.840;2023-07-30T12:15:42;28.20;58.70
19050;DHT22;9657;45.940;12.840;2023-07-30T12:18:09;28.20;58.70
19050;DHT22;9657;45.940;12.840;2023-07-30T12:20:36;28.20;58.80
19050;DHT22;9657;45.940;12.840;2023-07-30T12:23:03;28.20;58.80
19050;DHT22;9657;45.940;12.840;2023-07-30T12:25:30;28.20;58.90
19050;DHT22;9657;45.940;12.840;2023-07-30T12:27:58;28.20;59.00
19050;DHT22;9657;45.940;12.840;2023-07-30T12:30:25;28.20;59.10
19050;DHT22;9657;45.940;12.840;2023-07-30T12:32:53;28.20;59.10
19050;DHT22;9657;45.940;12.840;2023-07-30T12:35:20;28.20;59.20
19050;DHT22;9657;45.940;12.840;2023-07-30T12:37:47;28.20;59.10
19050;DHT22;9657;45.940;12.840;2023-07-30T12:40:14;28.20;59.10
19050;DHT22;9657;45.940;12.840;2023-07-30T12:42:41;28.20;59.20
19050;DHT22;9657;45.940;12.840;2023-07-30T12:45:10;28.20;59.10
19050;DHT22;9657;45.940;12.840;2023-07-30T12:47:37;28.30;59.20
19050;DHT22;9657;45.940;12.840;2023-07-30T12:50:05;28.20;59.20
19050;DHT22;9657;45.940;12.840;2023-07-30T12:52:33;28.20;59.20
19050;DHT22;9657;45.940;12.840;2023-07-30T12:55:00;28.20;59.10
19050;DHT22;9657;45.940;12.840;2023-07-30T12:57:29;28.20;59.10
19050;DHT22;9657;45.940;12.840;2023-07-30T12:59:56;28.20;59.20
19050;DHT22;9657;45.940;12.840;2023-07-30T13:02:25;28.20;59.20
19050;DHT22;9657;45.940;12.840;2023-07-30T13:04:52;28.20;59.20
19050;DHT22;9657;45.940;12.840;2023-07-30T13:07:19;28.20;59.10
19050;DHT22;9657;45.940;12.840;2023-07-30T13:09:46;28.20;59.10
19050;DHT22;9657;45.940;12.840;2023-07-30T13:12:13;28.20;59.10
19050;DHT22;9657;45.940;12.840;2023-07-30T13:14:40;28.20;59.20
19050;DHT22;9657;45.940;12.840;2023-07-30T13:17:07;28.20;59.10
19050;DHT22;9657;45.940;12.840;2023-07-30T13:19:36;28.20;59.10
19050;DHT22;9657;45.940;12.840;2023-07-30T13:22:03;28.20;59.10
19050;DHT22;9657;45.940;12.840;2023-07-30T13:24:30;28.20;59.00
19050;DHT22;9657;45.940;12.840;2023-07-30T13:26:57;28.20;59.00
19050;DHT22;9657;45.940;12.840;2023-07-30T13:29:24;28.20;58.90
19050;DHT22;9657;45.940;12.840;2023-07-30T13:31:51;28.20;58.90
19050;DHT22;9657;45.940;12.840;2023-07-30T13:34:18;28.20;59.10
19050;DHT22;9657;45.940;12.840;2023-07-30T13:36:47;28.20;59.10
19050;DHT22;9657;45.940;12.840;2023-07-30T13:39:14;28.20;59.00
19050;DHT22;9657;45.940;12.840;2023-07-30T13:41:41;28.20;58.90
19050;DHT22;9657;45.940;12.840;2023-07-30T13:44:08;28.30;59.10
19050;DHT22;9657;45.940;12.840;2023-07-30T13:46:36;28.30;59.00
19050;DHT22;9657;45.940;12.840;2023-07-30T13:49:04;28.30;58.90
19050;DHT22;9657;45.940;12.840;2023-07-30T13:51:31;28.20;59.00
19050;DHT22;9657;45.940;12.840;2023-07-30T13:54:00;28.30;58.80
19050;DHT22;9657;45.940;12.840;2023-07-30T13:56:28;28.30;58.90
19050;DHT22;9657;45.940;12.840;2023-07-30T13:58:55;28.30;59.00
19050;DHT22;9657;45.940;12.840;2023-07-30T14:01:23;28.30;58.90
19050;DHT22;9657;45.940;12.840;2023-07-30T14:03:50;28.30;58.80
19050;DHT22;9657;45.940;12.840;2023-07-30T14:06:17;28.30;58.80
19050;DHT22;9657;45.940;12.840;2023-07-30T14:08:44;28.30;58.80
19050;DHT22;9657;45.940;12.840;2023-07-30T14:11:12;28.30;58.80
19050;DHT22;9657;45.940;12.840;2023-07-30T14:13:40;28.30;58.80
19050;DHT22;9657;45.940;12.840;2023-07-30T14:16:07;28.30;59.00
19050;DHT22;9657;45.940;12.840;2023-07-30T14:18:34;28.30;59.00
19050;DHT22;9657;45.940;12.840;2023-07-30T14:21:01;28.30;59.10
19050;DHT22;9657;45.940;12.840;2023-07-30T14:23:29;28.30;58.90
19050;DHT22;9657;45.940;12.840;2023-07-30T14:25:56;28.30;59.10
19050;DHT22;9657;45.940;12.840;2023-07-30T14:28:25;28.30;59.00
19050;DHT22;9657;45.940;12.840;2023-07-30T14:30:52;28.30;59.10
19050;DHT22;9657;45.940;12.840;2023-07-30T14:33:19;28.30;59.10
19050;DHT22;9657;45.940;12.840;2023-07-30T14:35:46;28.30;59.10
19050;DHT22;9657;45.940;12.840;2023-07-30T14:38:13;28.30;59.10
19050;DHT22;9657;45.940;12.840;2023-07-30T14:40:42;28.30;59.10
19050;DHT22;9657;45.940;12.840;2023-07-30T14:43:09;28.30;59.10
19050;DHT22;9657;45.940;12.840;2023-07-30T14:45:38;28.30;59.00
19050;DHT22;9657;45.940;12.840;2023-07-30T14:48:05;28.30;58.90
19050;DHT22;9657;45.940;12.840;2023-07-30T14:50:32;28.30;58.80
19050;DHT22;9657;45.940;12.840;2023-07-30T14:52:59;28.30;58.80
19050;DHT22;9657;45.940;12.840;2023-07-30T14:55:26;28.30;58.90
19050;DHT22;9657;45.940;12.840;2023-07-30T14:57:53;28.30;58.90
19050;DHT22;9657;45.940;12.840;2023-07-30T15:00:21;28.30;59.00
19050;DHT22;9657;45.940;12.840;2023-07-30T15:02:49;28.30;59.10
19050;DHT22;9657;45.940;12.840;2023-07-30T15:05:16;28.30;59.10
19050;DHT22;9657;45.940;12.840;2023-07-30T15:07:43;28.30;59.10
19050;DHT22;9657;45.940;12.840;2023-07-30T15:10:10;28.30;59.00
19050;DHT22;9657;45.940;12.840;2023-07-30T15:12:37;28.30;59.00
19050;DHT22;9657;45.940;12.840;2023-07-30T15:15:06;28.30;59.10
19050;DHT22;9657;45.940;12.840;2023-07-30T15:17:34;28.30;59.10
19050;DHT22;9657;45.940;12.840;2023-07-30T15:20:04;28.30;59.10
19050;DHT22;9657;45.940;12.840;2023-07-30T15:22:31;28.30;59.10
19050;DHT22;9657;45.940;12.840;2023-07-30T15:24:58;28.40;59.20
19050;DHT22;9657;45.940;12.840;2023-07-30T15:27:25;28.30;58.90
19050;DHT22;9657;45.940;12.840;2023-07-30T15:29:52;28.30;59.00
19050;DHT22;9657;45.940;12.840;2023-07-30T15:32:19;28.30;59.00
19050;DHT22;9657;45.940;12.840;2023-07-30T15:34:46;28.40;59.00